Aeroporto :
LOGIN :

Iscrizione | Disclaimer

   EN    FR    IT 

 










Sommario :    VFR   VFR Marginale   IFR   IFR Intensivo   IFR Molto Intensivo
Visibilità : 
Base nubi : 
>= 8 km
>= 3000ft
5 / 8 km
1000 / 3000 ft
1500m / 5 km
500 / 1000 ft
800 / 1500m
200 / 500 ft
< 800m
< 200 ft
Simboli :   Temporali  Nebbia  Neve Forte  Precipitazioni Forti  Vento > 20 kt
SIGMETs :   Varie  Temporali  Ghiacco  Turbolenza  Onda orograficha  Ceneri Vulcaniche






- Altitudine del aeroporto : 15 ft
- Codice IATA : FCO


LIRF - Roma Leonardo da Vinci Fiumicino

ULTIMO METAR :
  • 171820Z 11003KT 9999 FEW040 11/09 Q1009 NOSIG

METARs OBSOLETI :
  • 171750Z 06005KT 9999 FEW040 12/09 Q1008 NOSIG
  • 171720Z 07003KT 9999 FEW040 12/09 Q1008 NOSIG
  • 171650Z 36003KT 9999 SCT035 12/09 Q1007 NOSIG
  • 171620Z 30006KT 9999 SCT040 13/09 Q1007 NOSIG
  • 171550Z 31007KT 9999 SCT030 13/10 Q1006 NOSIG

TAF TAF LIRF
Valido dal 17 a 18 ore il 19 a 00 ore UTC


171700Z 1718/1824 28012KT 9999 SCT030
BECMG 1804/1806 17013KT
BECMG 1815/1817 16015G25KT 1806/1824 SHRA



MetMap, La meteo Aeronautica in un colpo d'occhio ! - Copyright ORBIFLY Dicembre 2007 - Disclaimer

ORBIFLY MET'MAP TEAM :

Programmazione e sviluppo : Alexandra Zaïnal
Concezione e sviluppo : Baudouin d'Aumeries
Co-Programmazione e sviluppo : Marc-Olivier Méhu
Supporto tecnico e logistico : Manuel Goepfert
Aiuto per la traduzione : Arnaldo La Scala

Contatto : metmap@orbifly.com




FONTI E CREDITI :

   NOAA